createdAt,value
2017-11-25T00:00:22.381Z,7.40
2017-11-25T00:02:49.976Z,7.40
2017-11-25T00:05:17.592Z,7.40
2017-11-25T00:07:45.159Z,7.40
2017-11-25T00:10:12.761Z,7.30
2017-11-25T00:12:40.388Z,7.40
2017-11-25T00:15:08.016Z,7.40
2017-11-25T00:17:35.615Z,7.40
2017-11-25T00:20:03.984Z,7.30
2017-11-25T00:22:31.592Z,7.30
2017-11-25T00:24:59.198Z,7.30
2017-11-25T00:27:26.812Z,7.30
2017-11-25T00:29:54.346Z,7.30
2017-11-25T00:32:22.707Z,7.40
2017-11-25T00:34:51.075Z,7.40
2017-11-25T00:37:18.666Z,7.40
2017-11-25T00:39:47.024Z,7.40
2017-11-25T00:42:14.629Z,7.40
2017-11-25T00:44:42.180Z,7.40
2017-11-25T00:47:09.819Z,7.30
2017-11-25T00:49:37.411Z,7.40
2017-11-25T00:52:05.016Z,7.30
2017-11-25T00:54:32.624Z,7.30
2017-11-25T00:57:00.225Z,7.40
2017-11-25T00:59:27.823Z,7.30
2017-11-25T01:01:55.437Z,7.40
2017-11-25T01:04:23.010Z,7.40
2017-11-25T01:06:50.613Z,7.40
2017-11-25T01:09:18.216Z,7.30
2017-11-25T01:11:45.807Z,7.40
2017-11-25T01:14:13.367Z,7.30
2017-11-25T01:16:40.960Z,7.30
2017-11-25T01:19:08.558Z,7.30
2017-11-25T01:21:36.268Z,7.30
2017-11-25T01:24:03.876Z,7.30
2017-11-25T01:26:31.436Z,7.20
2017-11-25T01:28:59.028Z,7.20
2017-11-25T01:31:26.588Z,7.20
2017-11-25T01:33:54.191Z,7.20
2017-11-25T01:36:21.831Z,7.10
2017-11-25T01:38:50.237Z,7.10
2017-11-25T01:41:17.823Z,7.10
2017-11-25T01:43:45.436Z,7.10
2017-11-25T01:46:13.761Z,7.10
2017-11-25T01:48:41.352Z,7.10
2017-11-25T01:51:08.944Z,7.10
2017-11-25T01:53:36.511Z,7.10
2017-11-25T01:56:04.185Z,7.10
2017-11-25T01:58:31.792Z,7.10
2017-11-25T02:00:59.430Z,7.10
2017-11-25T02:03:27.021Z,7.10
2017-11-25T02:05:54.634Z,7.10
2017-11-25T02:08:22.284Z,7.00
2017-11-25T02:10:49.880Z,7.10
2017-11-25T02:13:17.544Z,7.00
2017-11-25T02:15:45.207Z,7.00
2017-11-25T02:18:12.785Z,6.90
2017-11-25T02:20:40.400Z,6.90
2017-11-25T02:23:08.021Z,6.90
2017-11-25T02:25:35.647Z,6.90
2017-11-25T02:28:03.280Z,6.90
2017-11-25T02:30:30.882Z,6.90
2017-11-25T02:32:58.484Z,6.90
2017-11-25T02:35:26.117Z,6.90
2017-11-25T02:37:53.785Z,6.90
2017-11-25T02:40:21.405Z,6.90
2017-11-25T02:42:48.983Z,6.90
2017-11-25T02:45:16.613Z,6.90
2017-11-25T02:47:44.298Z,6.90
2017-11-25T02:50:11.929Z,6.90
2017-11-25T02:52:39.549Z,6.80
2017-11-25T02:55:07.156Z,6.80
2017-11-25T02:57:34.748Z,6.80
2017-11-25T03:00:02.344Z,6.80
2017-11-25T03:02:29.954Z,6.70
2017-11-25T03:04:57.542Z,6.70
2017-11-25T03:07:25.157Z,6.70
2017-11-25T03:09:52.789Z,6.70
2017-11-25T03:12:20.350Z,6.70
2017-11-25T03:14:47.952Z,6.70
2017-11-25T03:17:15.562Z,6.70
2017-11-25T03:19:43.196Z,6.70
2017-11-25T03:22:10.843Z,6.70
2017-11-25T03:24:38.487Z,6.70
2017-11-25T03:27:06.141Z,6.70
2017-11-25T03:29:33.741Z,6.60
2017-11-25T03:32:01.339Z,6.60
2017-11-25T03:34:28.907Z,6.60
2017-11-25T03:36:56.501Z,6.60
2017-11-25T03:39:24.062Z,6.60
2017-11-25T03:41:51.655Z,6.60
2017-11-25T03:44:19.217Z,6.50
2017-11-25T03:46:46.771Z,6.50
2017-11-25T03:49:14.335Z,6.50
2017-11-25T03:51:41.998Z,6.50
2017-11-25T03:54:09.611Z,6.50
2017-11-25T03:56:37.209Z,6.50
2017-11-25T03:59:04.857Z,6.50
2017-11-25T04:01:32.519Z,6.50
2017-11-25T04:04:00.168Z,6.50
2017-11-25T04:06:27.752Z,6.50
2017-11-25T04:08:55.416Z,6.50
2017-11-25T04:11:23.017Z,6.50
2017-11-25T04:13:51.351Z,6.60
2017-11-25T04:16:18.943Z,6.60
2017-11-25T04:18:46.536Z,6.60
2017-11-25T04:21:14.154Z,6.60
2017-11-25T04:23:41.787Z,6.60
2017-11-25T04:26:09.432Z,6.60
2017-11-25T04:28:37.005Z,6.60
2017-11-25T04:31:04.585Z,6.60
2017-11-25T04:33:32.221Z,6.60
2017-11-25T04:35:59.823Z,6.60
2017-11-25T04:38:27.452Z,6.60
2017-11-25T04:40:55.026Z,6.60
2017-11-25T04:43:22.643Z,6.60
2017-11-25T04:45:50.248Z,6.60
2017-11-25T04:48:17.813Z,6.50
2017-11-25T04:50:45.420Z,6.50
2017-11-25T04:53:13.029Z,6.50
2017-11-25T04:55:40.616Z,6.50
2017-11-25T04:58:08.178Z,6.40
2017-11-25T05:00:35.849Z,6.40
2017-11-25T05:03:04.186Z,6.40
2017-11-25T05:05:31.817Z,6.40
2017-11-25T05:07:59.448Z,6.40
2017-11-25T05:10:27.854Z,6.40
2017-11-25T05:12:55.448Z,6.40
2017-11-25T05:15:23.047Z,6.40
2017-11-25T05:17:51.389Z,6.40
2017-11-25T05:20:19.052Z,6.40
2017-11-25T05:22:46.648Z,6.40
2017-11-25T05:25:14.269Z,6.30
2017-11-25T05:27:41.888Z,6.30
2017-11-25T05:30:10.260Z,6.30
2017-11-25T05:32:38.639Z,6.20
2017-11-25T05:35:06.304Z,6.20
2017-11-25T05:37:33.953Z,6.20
2017-11-25T05:40:01.635Z,6.20
2017-11-25T05:42:29.271Z,6.10
2017-11-25T05:44:56.863Z,6.10
2017-11-25T05:47:24.457Z,6.10
2017-11-25T05:49:52.821Z,6.00
2017-11-25T05:52:20.467Z,5.90
2017-11-25T05:54:49.533Z,5.90
2017-11-25T05:57:17.980Z,5.80
2017-11-25T05:59:49.336Z,5.80
2017-11-25T06:02:17.175Z,5.80
2017-11-25T06:04:45.892Z,5.70
2017-11-25T06:07:13.530Z,5.70
2017-11-25T06:09:43.064Z,5.70
2017-11-25T06:12:12.415Z,5.70
2017-11-25T06:14:41.239Z,5.70
2017-11-25T06:17:09.912Z,5.70
2017-11-25T06:19:38.452Z,5.70
2017-11-25T06:22:06.820Z,5.70
2017-11-25T06:24:34.737Z,5.70
2017-11-25T06:29:37.390Z,5.70
2017-11-25T06:32:07.165Z,5.70
2017-11-25T06:34:34.746Z,5.70
2017-11-25T06:37:03.305Z,5.70
2017-11-25T06:39:35.728Z,5.60
2017-11-25T06:42:04.322Z,5.70
2017-11-25T06:44:31.977Z,5.70
2017-11-25T06:47:00.340Z,5.60
2017-11-25T06:49:30.640Z,5.60
2017-11-25T06:51:59.195Z,5.60
2017-11-25T06:54:27.728Z,5.60
2017-11-25T06:56:55.280Z,5.60
2017-11-25T06:59:25.609Z,5.60
2017-11-25T07:01:54.416Z,5.50
2017-11-25T07:04:22.808Z,5.50
2017-11-25T07:06:50.403Z,5.50
2017-11-25T07:09:18.624Z,5.50
2017-11-25T07:11:46.985Z,5.50
2017-11-25T07:14:14.713Z,5.50
2017-11-25T07:16:42.663Z,5.50
2017-11-25T07:19:11.517Z,5.50
2017-11-25T07:21:39.107Z,5.50
2017-11-25T07:24:06.686Z,5.60
2017-11-25T07:26:34.245Z,5.60
2017-11-25T07:29:01.819Z,5.60
2017-11-25T07:31:29.392Z,5.60
2017-11-25T07:33:56.977Z,5.60
2017-11-25T07:36:24.575Z,5.60
2017-11-25T07:38:52.125Z,5.70
2017-11-25T07:41:19.776Z,5.70
2017-11-25T07:43:48.037Z,5.70
2017-11-25T07:46:17.416Z,5.70
2017-11-25T07:48:45.516Z,5.60
2017-11-25T07:51:17.063Z,5.60
2017-11-25T07:53:48.304Z,5.60
2017-11-25T07:56:16.683Z,5.60
2017-11-25T07:58:45.033Z,5.60
2017-11-25T08:01:13.353Z,5.70
2017-11-25T08:03:41.673Z,5.70
2017-11-25T08:06:09.868Z,5.70
2017-11-25T08:08:37.468Z,5.70
2017-11-25T08:11:05.091Z,5.80
2017-11-25T08:13:32.742Z,5.80
2017-11-25T08:16:00.617Z,5.80
2017-11-25T08:18:28.213Z,5.80
2017-11-25T08:20:55.850Z,5.90
2017-11-25T08:23:23.471Z,5.90
2017-11-25T08:25:51.267Z,6.00
2017-11-25T08:28:18.885Z,6.00
2017-11-25T08:30:51.690Z,6.00
2017-11-25T08:33:19.372Z,5.90
2017-11-25T08:35:46.967Z,6.00
2017-11-25T08:38:14.580Z,6.00
2017-11-25T08:40:42.141Z,6.00
2017-11-25T08:43:10.391Z,6.00
2017-11-25T08:45:40.183Z,6.00
2017-11-25T08:48:08.581Z,6.00
2017-11-25T08:50:36.136Z,6.00
2017-11-25T08:53:03.747Z,6.00
2017-11-25T08:55:31.310Z,6.00
2017-11-25T08:57:58.865Z,6.00
2017-11-25T09:00:26.425Z,6.00
2017-11-25T09:02:54.050Z,5.90
2017-11-25T09:05:21.680Z,5.90
2017-11-25T09:07:53.082Z,5.90
2017-11-25T09:10:20.831Z,5.80
2017-11-25T09:12:48.477Z,5.80
2017-11-25T09:15:16.149Z,5.80
2017-11-25T09:17:44.113Z,5.80
2017-11-25T09:20:11.852Z,5.70
2017-11-25T09:30:15.439Z,5.80
2017-11-25T09:32:43.061Z,5.80
2017-11-25T09:35:13.293Z,5.70
2017-11-25T09:37:41.720Z,5.70
2017-11-25T09:40:09.356Z,5.70
2017-11-25T09:42:36.996Z,5.70
2017-11-25T09:45:04.661Z,5.60
2017-11-25T09:47:33.056Z,5.70
2017-11-25T09:50:01.521Z,5.70
2017-11-25T09:52:29.409Z,5.60
2017-11-25T09:54:57.340Z,5.60
2017-11-25T09:57:24.957Z,5.60
2017-11-25T09:59:52.631Z,5.70
2017-11-25T10:02:20.225Z,5.70
2017-11-25T10:04:47.821Z,5.70
2017-11-25T10:07:15.411Z,5.70
2017-11-25T10:09:43.208Z,5.80
2017-11-25T10:12:10.819Z,5.80
2017-11-25T10:14:38.867Z,5.80
2017-11-25T10:17:10.166Z,5.60
2017-11-25T10:19:37.761Z,5.60
2017-11-25T10:22:07.137Z,5.60
2017-11-25T10:24:34.761Z,5.40
2017-11-25T10:27:02.352Z,5.40
2017-11-25T10:29:30.212Z,5.30
2017-11-25T10:31:58.123Z,5.30
2017-11-25T10:34:25.741Z,5.30
2017-11-25T10:36:53.324Z,5.30
2017-11-25T10:39:20.901Z,5.30
2017-11-25T10:41:48.524Z,5.40
2017-11-25T10:44:16.698Z,5.40
2017-11-25T10:46:44.546Z,5.30
2017-11-25T10:49:12.137Z,5.30
2017-11-25T10:51:39.901Z,5.30
2017-11-25T10:54:08.004Z,5.30
2017-11-25T10:56:35.671Z,5.30
2017-11-25T10:59:04.040Z,5.40
2017-11-25T11:01:31.632Z,5.40
2017-11-25T11:03:59.191Z,5.40
2017-11-25T11:06:26.807Z,5.40
2017-11-25T11:08:54.456Z,5.50
2017-11-25T11:11:22.012Z,5.50
2017-11-25T11:13:49.601Z,5.50
2017-11-25T11:16:17.198Z,5.50
2017-11-25T11:18:44.916Z,5.40
2017-11-25T11:21:12.510Z,5.40
2017-11-25T11:23:40.107Z,5.50
2017-11-25T11:26:07.739Z,5.40
2017-11-25T11:28:35.345Z,5.30
2017-11-25T11:31:02.957Z,5.30
2017-11-25T11:33:30.983Z,5.30
2017-11-25T11:38:31.468Z,5.20
2017-11-25T11:41:05.976Z,5.10
2017-11-25T11:43:33.858Z,5.00
2017-11-25T11:46:02.324Z,4.90
2017-11-25T11:48:30.692Z,5.00
2017-11-25T11:50:58.291Z,4.90
2017-11-25T11:53:26.509Z,5.00
2017-11-25T11:55:54.116Z,4.90
2017-11-25T11:58:21.740Z,4.90
2017-11-25T12:00:49.349Z,4.90
2017-11-25T12:03:17.123Z,4.90
2017-11-25T12:05:44.738Z,4.90
2017-11-25T12:08:12.320Z,4.90
2017-11-25T12:10:40.750Z,4.90
2017-11-25T12:13:10.481Z,4.90
2017-11-25T12:15:39.081Z,4.80
2017-11-25T12:18:06.653Z,4.80
2017-11-25T12:20:37.002Z,4.80
2017-11-25T12:23:05.124Z,4.80
2017-11-25T12:51:06.104Z,4.80
2017-11-25T12:53:33.681Z,4.80
2017-11-25T12:56:01.240Z,4.80
2017-11-25T12:58:28.832Z,4.80
2017-11-25T13:00:56.426Z,4.80
2017-11-25T13:03:24.012Z,4.80
2017-11-25T13:05:51.560Z,4.90
2017-11-25T13:08:19.168Z,4.90
2017-11-25T13:10:46.765Z,4.90
2017-11-25T13:13:14.389Z,5.00
2017-11-25T13:15:42.001Z,4.90
2017-11-25T13:18:09.688Z,4.90
2017-11-25T13:20:37.280Z,4.90
2017-11-25T13:23:05.043Z,4.80
2017-11-25T13:25:33.468Z,4.80
2017-11-25T13:28:01.100Z,4.80
2017-11-25T13:30:28.769Z,4.90
2017-11-25T13:32:56.426Z,4.90
2017-11-25T13:35:23.999Z,4.90
2017-11-25T13:37:51.588Z,4.90
2017-11-25T13:40:19.185Z,4.80
2017-11-25T13:42:46.795Z,4.90
2017-11-25T13:45:14.409Z,4.90
2017-11-25T13:47:42.033Z,4.90
2017-11-25T13:50:09.612Z,4.90
2017-11-25T13:52:37.208Z,4.90
2017-11-25T13:55:04.816Z,4.90
2017-11-25T13:57:32.417Z,4.90
2017-11-25T14:00:00.893Z,4.90
2017-11-25T14:02:28.520Z,4.90
2017-11-25T14:04:56.501Z,4.90
2017-11-25T14:07:24.188Z,4.80
2017-11-25T14:09:51.853Z,4.80
2017-11-25T14:12:19.487Z,4.80
2017-11-25T14:14:47.089Z,4.80
2017-11-25T14:17:15.708Z,4.80
2017-11-25T14:19:43.447Z,4.80
2017-11-25T14:22:11.057Z,4.80
2017-11-25T14:24:38.704Z,4.80
2017-11-25T14:27:06.640Z,4.80
2017-11-25T14:29:34.800Z,4.80
2017-11-25T14:32:02.469Z,4.80
2017-11-25T14:34:30.898Z,4.70
2017-11-25T14:36:58.496Z,4.80
2017-11-25T14:39:26.104Z,4.80
2017-11-25T14:41:53.752Z,4.80
2017-11-25T14:44:21.358Z,4.80
2017-11-25T14:46:48.972Z,4.70
2017-11-25T14:49:16.597Z,4.70
2017-11-25T14:51:44.165Z,4.70
2017-11-25T14:54:11.769Z,4.70
2017-11-25T14:56:39.375Z,4.70
2017-11-25T14:59:06.972Z,4.70
2017-11-25T15:01:35.059Z,4.70
2017-11-25T15:04:04.657Z,4.70
2017-11-25T15:06:33.205Z,4.70
2017-11-25T15:09:00.833Z,4.70
2017-11-25T15:11:28.521Z,4.70
2017-11-25T15:13:56.111Z,4.70
2017-11-25T15:16:23.728Z,4.70
2017-11-25T15:18:51.340Z,4.70
2017-11-25T15:21:18.965Z,4.70
2017-11-25T15:23:46.632Z,4.70
2017-11-25T15:26:14.211Z,4.70
2017-11-25T15:28:41.817Z,4.60
2017-11-25T15:31:10.728Z,4.70
2017-11-25T15:33:38.453Z,4.70
2017-11-25T15:36:06.601Z,4.60
2017-11-25T15:38:35.844Z,4.60
2017-11-25T15:41:03.439Z,4.60
2017-11-25T15:43:31.059Z,4.60
2017-11-25T15:45:59.683Z,4.60
2017-11-25T15:48:27.332Z,4.60
2017-11-25T15:50:54.986Z,4.60
2017-11-25T15:53:26.716Z,4.60
2017-11-25T15:55:54.681Z,4.60
2017-11-25T16:03:26.456Z,4.60
2017-11-25T16:05:54.141Z,4.60
2017-11-25T16:08:21.718Z,4.60
2017-11-25T16:10:49.352Z,4.60
2017-11-25T16:13:17.920Z,4.60
2017-11-25T16:15:46.708Z,4.60
2017-11-25T16:18:15.081Z,4.60
2017-11-25T16:20:46.789Z,4.60
2017-11-25T16:23:14.478Z,4.60
2017-11-25T16:25:42.126Z,4.60
2017-11-25T16:28:09.719Z,4.60
2017-11-25T16:30:37.429Z,4.60
2017-11-25T16:33:05.041Z,4.60
2017-11-25T16:35:33.582Z,4.60
2017-11-25T16:38:01.224Z,4.60
2017-11-25T16:40:28.834Z,4.70
2017-11-25T16:42:56.437Z,4.70
2017-11-25T16:45:24.852Z,4.70
2017-11-25T16:47:52.464Z,4.70
2017-11-25T16:50:20.068Z,4.70
2017-11-25T16:52:47.669Z,4.70
2017-11-25T16:55:15.238Z,4.70
2017-11-25T16:57:43.796Z,4.80
2017-11-25T17:00:11.404Z,4.70
2017-11-25T17:02:38.999Z,4.80
2017-11-25T17:05:06.591Z,4.80
2017-11-25T17:07:34.190Z,4.80
2017-11-25T17:10:01.837Z,4.80
2017-11-25T17:12:29.464Z,4.80
2017-11-25T17:14:57.074Z,4.90
2017-11-25T17:17:24.665Z,4.90
2017-11-25T17:19:52.265Z,4.90
2017-11-25T17:22:20.635Z,4.90
2017-11-25T17:24:48.241Z,4.90
2017-11-25T17:27:15.812Z,4.90
2017-11-25T17:29:43.374Z,4.90
2017-11-25T17:32:10.996Z,4.90
2017-11-25T17:34:38.612Z,4.90
2017-11-25T17:37:06.238Z,4.90
2017-11-25T17:39:33.856Z,4.90
2017-11-25T17:42:01.495Z,4.90
2017-11-25T17:44:29.089Z,4.90
2017-11-25T17:46:56.693Z,4.90
2017-11-25T17:49:25.433Z,4.80
2017-11-25T17:51:53.219Z,4.80
2017-11-25T17:54:20.881Z,4.70
2017-11-25T17:56:49.251Z,4.70
2017-11-25T17:59:16.841Z,4.60
2017-11-25T18:01:44.443Z,4.50
2017-11-25T18:04:13.423Z,4.50
2017-11-25T18:06:41.009Z,4.40
2017-11-25T18:09:08.598Z,4.30
2017-11-25T18:11:36.180Z,4.20
2017-11-25T18:14:03.712Z,4.20
2017-11-25T18:16:32.340Z,4.00
2017-11-25T18:18:59.941Z,4.00
2017-11-25T18:21:27.562Z,4.00
2017-11-25T18:23:55.156Z,3.90
2017-11-25T18:26:22.760Z,3.90
2017-11-25T18:28:50.938Z,3.80
2017-11-25T18:31:18.867Z,3.80
2017-11-25T18:33:47.147Z,3.70
2017-11-25T18:36:14.974Z,3.60
2017-11-25T18:38:42.877Z,3.60
2017-11-25T18:41:10.581Z,3.60
2017-11-25T18:43:38.642Z,3.50
2017-11-25T18:46:08.350Z,3.40
2017-11-25T18:48:37.772Z,3.40
2017-11-25T18:51:07.433Z,3.30
2017-11-25T18:53:36.409Z,3.30
2017-11-25T18:56:05.868Z,3.30
2017-11-25T18:58:34.984Z,3.20
2017-11-25T19:01:03.487Z,3.20
2017-11-25T19:03:31.413Z,3.10
2017-11-25T19:05:59.460Z,3.10
2017-11-25T19:08:28.765Z,3.10
2017-11-25T19:10:59.848Z,3.00
2017-11-25T19:13:27.604Z,3.00
2017-11-25T19:15:58.549Z,2.90
2017-11-25T19:18:26.960Z,2.80
2017-11-25T19:20:55.122Z,2.80
2017-11-25T19:23:23.249Z,2.80
2017-11-25T19:25:51.393Z,2.80
2017-11-25T19:28:19.536Z,2.80
2017-11-25T19:30:47.928Z,2.80
2017-11-25T19:33:16.385Z,2.80
2017-11-25T19:35:44.735Z,2.80
2017-11-25T19:38:12.605Z,2.80
2017-11-25T19:40:40.873Z,2.70
2017-11-25T19:43:09.598Z,2.70
2017-11-25T19:45:38.024Z,2.70
2017-11-25T19:48:07.044Z,2.70
2017-11-25T19:50:36.469Z,2.70
2017-11-25T19:53:05.020Z,2.80
2017-11-25T19:55:32.877Z,2.80
2017-11-25T19:58:01.632Z,2.80
2017-11-25T20:00:29.432Z,2.80
2017-11-25T20:02:57.065Z,2.80
2017-11-25T20:05:24.764Z,2.80
2017-11-25T20:07:53.511Z,2.70
2017-11-25T20:10:21.246Z,2.80
2017-11-25T20:12:49.177Z,2.70
2017-11-25T20:15:17.114Z,2.70
2017-11-25T20:17:45.369Z,2.70
2017-11-25T20:20:13.507Z,2.70
2017-11-25T20:22:42.246Z,2.60
2017-11-25T20:25:10.339Z,2.60
2017-11-25T20:27:38.467Z,2.60
2017-11-25T20:30:06.255Z,2.60
2017-11-25T20:32:34.165Z,2.60
2017-11-25T20:35:02.072Z,2.60
2017-11-25T20:37:30.605Z,2.60
2017-11-25T20:40:02.249Z,2.60
2017-11-25T20:42:30.258Z,2.60
2017-11-25T20:44:58.245Z,2.70
2017-11-25T20:47:26.060Z,2.70
2017-11-25T20:49:53.921Z,2.70
2017-11-25T20:52:21.609Z,2.70
2017-11-25T20:54:49.532Z,2.70
2017-11-25T20:57:18.357Z,2.70
2017-11-25T20:59:46.052Z,2.70
2017-11-25T21:02:14.140Z,2.70
2017-11-25T21:04:42.351Z,2.70
2017-11-25T21:07:10.029Z,2.70
2017-11-25T21:09:38.085Z,2.70
2017-11-25T21:12:05.894Z,2.60
2017-11-25T21:14:33.581Z,2.60
2017-11-25T21:17:01.366Z,2.60
2017-11-25T21:19:29.053Z,2.60
2017-11-25T21:22:00.263Z,2.60
2017-11-25T21:24:28.096Z,2.60
2017-11-25T21:26:59.737Z,2.60
2017-11-25T21:29:27.993Z,2.70
2017-11-25T21:32:02.741Z,2.70
2017-11-25T21:34:30.726Z,2.70
2017-11-25T21:36:58.445Z,2.70
2017-11-25T21:39:26.617Z,2.70
2017-11-25T21:41:54.992Z,2.70
2017-11-25T21:44:24.682Z,2.70
2017-11-25T21:46:52.587Z,2.70
2017-11-25T21:49:22.353Z,2.70
2017-11-25T21:51:52.853Z,2.60
2017-11-25T21:54:22.185Z,2.70
2017-11-25T21:56:50.288Z,2.70
2017-11-25T21:59:18.546Z,2.70
2017-11-25T22:01:46.557Z,2.60
2017-11-25T22:04:14.773Z,2.60
2017-11-25T22:06:42.793Z,2.60
2017-11-25T22:09:10.687Z,2.60
2017-11-25T22:19:29.620Z,2.60
2017-11-25T22:21:57.215Z,2.70
2017-11-25T22:24:39.099Z,2.60
2017-11-25T22:29:42.518Z,2.60
2017-11-25T22:32:10.544Z,2.60
2017-11-25T22:34:39.029Z,2.60
2017-11-25T22:37:07.530Z,2.60
2017-11-25T22:39:35.487Z,2.60
2017-11-25T22:42:03.868Z,2.60
2017-11-25T22:44:32.073Z,2.60
2017-11-25T22:47:01.064Z,2.60
2017-11-25T22:49:31.017Z,2.60
2017-11-25T22:51:59.101Z,2.60
2017-11-25T22:54:27.397Z,2.60
2017-11-25T22:56:55.812Z,2.60
2017-11-25T22:59:24.064Z,2.60
2017-11-25T23:01:53.398Z,2.50
2017-11-25T23:04:21.280Z,2.50
2017-11-25T23:06:50.670Z,2.50
2017-11-25T23:09:19.055Z,2.50
2017-11-25T23:11:48.058Z,2.50
2017-11-25T23:14:18.025Z,2.50
2017-11-25T23:16:47.826Z,2.50
2017-11-25T23:19:17.802Z,2.40
2017-11-25T23:21:46.835Z,2.30
2017-11-25T23:24:15.452Z,2.30
2017-11-25T23:26:44.540Z,2.30
2017-11-25T23:29:16.593Z,2.30
2017-11-25T23:31:49.584Z,2.30
2017-11-25T23:34:18.692Z,2.30
2017-11-25T23:36:50.161Z,2.30
2017-11-25T23:39:17.936Z,2.20
2017-11-25T23:41:45.528Z,2.20
2017-11-25T23:44:13.085Z,2.20
2017-11-25T23:46:40.688Z,2.30
2017-11-25T23:49:10.170Z,2.30
2017-11-25T23:51:38.866Z,2.30
2017-11-25T23:54:08.017Z,2.20
2017-11-25T23:56:36.680Z,2.30
2017-11-25T23:59:04.669Z,2.20
